Terminal Aerodrome Forecast
Issued by NWS

Home | Current Version | Previous Version | Text Only | Print | Product List | Glossary On
Versions: 1 2 3 4 5 6 7 8 9 10 11 12 13 14 15 16 17 18 19 20
000
FTUS43 KAPX 251009 AAA
TAFPLN
TAF AMD
KPLN 251009Z 2510/2606 16015G25KT 4SM -RASN BR OVC008 WS020/15045KT
     FM251200 22015G25KT 6SM -RASN OVC010 WS020/25045KT
     FM251400 23022G36KT P6SM OVC015
     FM251600 24026G42KT P6SM OVC020
     FM260000 24022G33KT P6SM SCT030
     FM260300 24018G27KT P6SM SCT030=

USA.gov is the U.S. government's official web portal to all federal, state and local government web resources and services.